createdAt,value
2024-03-12T00:01:40.562Z,100271.09
2024-03-12T00:04:11.066Z,100270.28
2024-03-12T00:06:38.961Z,100265.03
2024-03-12T00:09:11.010Z,100263.13
2024-03-12T00:11:38.051Z,100259.06
2024-03-12T00:14:05.207Z,100251.03
2024-03-12T00:16:34.912Z,100250.47
2024-03-12T00:19:02.324Z,100247.66
2024-03-12T00:21:30.574Z,100253.78
2024-03-12T00:23:57.484Z,100254.75
2024-03-12T00:26:24.109Z,100254.66
2024-03-12T00:28:50.795Z,100249.44
2024-03-12T00:31:17.956Z,100248.59
2024-03-12T00:33:48.433Z,100246.84
2024-03-12T00:36:15.479Z,100245.72
2024-03-12T00:38:42.819Z,100244.94
2024-03-12T00:41:09.887Z,100244.03
2024-03-12T00:43:37.192Z,100251.34
2024-03-12T00:46:06.131Z,100240.00
2024-03-12T00:48:33.066Z,100243.41
2024-03-12T00:50:59.930Z,100245.00
2024-03-12T00:53:26.738Z,100240.78
2024-03-12T00:55:54.454Z,100232.94
2024-03-12T00:58:22.112Z,100233.06
2024-03-12T01:00:50.561Z,100237.19
2024-03-12T01:03:18.575Z,100227.25
2024-03-12T01:05:45.583Z,100230.00
2024-03-12T01:08:13.368Z,100220.31
2024-03-12T01:10:40.718Z,100222.03
2024-03-12T01:13:08.285Z,100223.25
2024-03-12T01:15:36.295Z,100219.72
2024-03-12T01:18:04.695Z,100221.31
2024-03-12T01:20:35.561Z,100222.41
2024-03-12T01:23:02.759Z,100211.25
2024-03-12T01:25:32.498Z,100212.88
2024-03-12T01:28:00.334Z,100208.84
2024-03-12T01:30:31.813Z,100204.31
2024-03-12T01:32:59.634Z,100193.94
2024-03-12T01:35:26.691Z,100201.03
2024-03-12T01:37:54.542Z,100200.97
2024-03-12T01:40:24.062Z,100200.75
2024-03-12T01:42:52.834Z,100211.16
2024-03-12T01:45:23.494Z,100210.88
2024-03-12T01:47:51.884Z,100203.06
2024-03-12T01:50:19.552Z,100200.56
2024-03-12T01:52:47.533Z,100199.66
2024-03-12T01:55:19.673Z,100200.50
2024-03-12T01:57:47.331Z,100197.69
2024-03-12T02:00:15.665Z,100198.38
2024-03-12T02:02:44.115Z,100199.31
2024-03-12T02:05:11.754Z,100194.44
2024-03-12T02:07:46.877Z,100196.81
2024-03-12T02:10:15.300Z,100197.06
2024-03-12T02:12:42.809Z,100193.44
2024-03-12T02:15:09.794Z,100193.66
2024-03-12T02:17:36.519Z,100185.59
2024-03-12T02:20:08.605Z,100183.38
2024-03-12T02:22:37.206Z,100185.84
2024-03-12T02:25:08.279Z,100178.69
2024-03-12T02:27:34.990Z,100179.78
2024-03-12T02:30:01.877Z,100174.19
2024-03-12T02:32:29.061Z,100171.59
2024-03-12T02:34:55.751Z,100158.09
2024-03-12T02:37:22.491Z,100165.91
2024-03-12T02:39:49.674Z,100158.06
2024-03-12T02:42:16.653Z,100154.41
2024-03-12T02:44:43.409Z,100158.81
2024-03-12T02:47:10.706Z,100153.66
2024-03-12T02:49:38.078Z,100152.00
2024-03-12T02:52:05.454Z,100151.66
2024-03-12T02:54:32.195Z,100143.72
2024-03-12T02:56:59.401Z,100136.69
2024-03-12T02:59:28.398Z,100128.22
2024-03-12T03:01:58.658Z,100128.38
2024-03-12T03:04:25.547Z,100124.84
2024-03-12T03:06:59.009Z,100121.78
2024-03-12T03:09:27.536Z,100119.22
2024-03-12T03:11:54.497Z,100116.84
2024-03-12T03:14:21.802Z,100115.34
2024-03-12T03:16:49.418Z,100109.72
2024-03-12T03:19:16.402Z,100113.94
2024-03-12T03:21:43.110Z,100113.22
2024-03-12T03:24:09.748Z,100106.69
2024-03-12T03:26:36.338Z,100098.16
2024-03-12T03:29:05.222Z,100102.09
2024-03-12T03:31:31.923Z,100096.91
2024-03-12T03:33:59.837Z,100097.66
2024-03-12T03:36:27.656Z,100100.03
2024-03-12T03:38:54.422Z,100092.16
2024-03-12T03:41:21.086Z,100080.91
2024-03-12T03:43:47.697Z,100081.50
2024-03-12T03:46:14.558Z,100086.72
2024-03-12T03:48:41.409Z,100075.00
2024-03-12T03:51:08.307Z,100070.84
2024-03-12T03:53:34.943Z,100073.13
2024-03-12T03:56:01.538Z,100067.50
2024-03-12T03:58:28.172Z,100072.78
2024-03-12T04:00:54.923Z,100069.09
2024-03-12T04:03:22.068Z,100069.63
2024-03-12T04:05:48.668Z,100067.72
2024-03-12T04:08:19.328Z,100062.81
2024-03-12T04:10:47.878Z,100068.41
2024-03-12T04:13:15.855Z,100062.63
2024-03-12T04:15:42.562Z,100058.56
2024-03-12T04:18:12.481Z,100058.66
2024-03-12T04:20:39.350Z,100058.81
2024-03-12T04:23:05.990Z,100058.63
2024-03-12T04:25:32.875Z,100055.84
2024-03-12T04:27:59.533Z,100035.38
2024-03-12T04:30:26.342Z,100031.94
2024-03-12T04:32:52.952Z,100044.75
2024-03-12T04:35:19.568Z,100049.81
2024-03-12T04:37:46.180Z,100040.84
2024-03-12T04:40:13.340Z,100048.13
2024-03-12T04:42:40.363Z,100046.38
2024-03-12T04:45:08.757Z,100041.69
2024-03-12T04:47:38.486Z,100035.63
2024-03-12T04:50:05.623Z,100043.44
2024-03-12T04:52:34.949Z,100035.06
2024-03-12T04:55:01.987Z,100026.97
2024-03-12T04:57:29.192Z,100031.13
2024-03-12T04:59:55.936Z,100034.69
2024-03-12T05:02:22.669Z,100037.34
2024-03-12T05:04:49.576Z,100028.75
2024-03-12T05:07:16.806Z,100031.75
2024-03-12T05:09:44.065Z,100025.84
2024-03-12T05:12:10.721Z,100017.78
2024-03-12T05:14:37.988Z,100013.00
2024-03-12T05:17:04.871Z,100019.66
2024-03-12T05:19:31.534Z,100020.69
2024-03-12T05:21:58.252Z,100023.19
2024-03-12T05:24:25.493Z,100028.97
2024-03-12T05:26:53.461Z,100032.34
2024-03-12T05:29:20.482Z,100025.34
2024-03-12T05:31:47.136Z,100022.81
2024-03-12T05:34:28.892Z,100029.28
2024-03-12T05:37:05.071Z,100023.53
2024-03-12T05:40:01.962Z,100013.03
2024-03-12T05:42:47.230Z,100013.72
2024-03-12T05:45:32.624Z,100015.03
2024-03-12T05:48:09.047Z,100011.09
2024-03-12T05:50:35.781Z,100006.03
2024-03-12T05:53:02.455Z,100009.03
2024-03-12T05:55:29.297Z,100006.00
2024-03-12T05:57:55.918Z,99997.34
2024-03-12T06:00:22.715Z,99999.34
2024-03-12T06:02:50.915Z,100004.00
2024-03-12T06:05:18.186Z,100009.50
2024-03-12T06:07:49.670Z,99995.50
2024-03-12T06:10:17.712Z,100011.09
2024-03-12T06:12:44.577Z,100010.09
2024-03-12T06:15:11.359Z,100010.34
2024-03-12T06:17:38.163Z,100004.28
2024-03-12T06:20:11.353Z,100017.25
2024-03-12T06:22:38.297Z,100022.75
2024-03-12T06:25:05.439Z,100016.75
2024-03-12T06:27:33.522Z,100018.78
2024-03-12T06:30:00.812Z,100014.13
2024-03-12T06:32:32.640Z,100025.81
2024-03-12T06:34:59.831Z,100027.97
2024-03-12T06:37:29.445Z,100032.44
2024-03-12T06:39:56.748Z,100022.34
2024-03-12T06:42:27.632Z,100018.53
2024-03-12T06:44:54.515Z,100015.72
2024-03-12T06:47:22.164Z,100010.38
2024-03-12T06:49:49.990Z,100018.09
2024-03-12T06:52:16.934Z,100013.84
2024-03-12T06:54:48.920Z,100024.31
2024-03-12T06:57:19.048Z,100011.81
2024-03-12T06:59:48.756Z,100013.63
2024-03-12T07:02:18.212Z,100014.16
2024-03-12T07:04:46.735Z,100004.31
2024-03-12T07:07:19.445Z,100007.38
2024-03-12T07:09:47.141Z,99997.78
2024-03-12T07:12:17.890Z,100008.66
2024-03-12T07:14:46.924Z,100007.09
2024-03-12T07:17:15.670Z,100006.03
2024-03-12T07:19:44.127Z,100012.25
2024-03-12T07:22:12.894Z,100008.47
2024-03-12T07:24:40.915Z,100002.19
2024-03-12T07:27:08.695Z,100002.75
2024-03-12T07:29:35.400Z,100001.19
2024-03-12T07:32:04.621Z,99998.09
2024-03-12T07:34:32.187Z,99998.84
2024-03-12T07:37:00.719Z,99997.25
2024-03-12T07:39:38.199Z,99996.06
2024-03-12T07:42:14.629Z,99984.81
2024-03-12T07:44:42.282Z,99989.22
2024-03-12T07:47:11.037Z,99984.28
2024-03-12T07:49:38.353Z,99988.75
2024-03-12T07:52:07.024Z,99984.56
2024-03-12T07:54:34.740Z,99984.53
2024-03-12T07:57:01.801Z,99973.75
2024-03-12T07:59:31.669Z,99975.88
2024-03-12T08:01:59.064Z,99970.59
2024-03-12T08:04:26.635Z,99974.78
2024-03-12T08:06:54.144Z,99980.69
2024-03-12T08:09:20.931Z,99968.94
2024-03-12T08:11:48.476Z,99972.63
2024-03-12T08:14:15.527Z,99967.22
2024-03-12T08:16:42.859Z,99961.91
2024-03-12T08:19:12.888Z,99956.94
2024-03-12T08:21:40.459Z,99959.00
2024-03-12T08:24:07.465Z,99949.56
2024-03-12T08:26:34.098Z,99965.84
2024-03-12T08:29:00.715Z,99966.44
2024-03-12T08:31:35.681Z,99956.72
2024-03-12T08:34:10.638Z,99968.16
2024-03-12T08:36:37.602Z,99959.72
2024-03-12T08:39:06.005Z,99967.00
2024-03-12T08:41:34.453Z,99970.06
2024-03-12T08:44:02.138Z,99971.47
2024-03-12T08:46:29.897Z,99967.75
2024-03-12T08:48:56.885Z,99970.09
2024-03-12T08:51:25.174Z,99974.09
2024-03-12T08:53:52.435Z,99970.16
2024-03-12T08:56:20.797Z,99961.50
2024-03-12T08:58:50.468Z,99962.78
2024-03-12T09:01:19.510Z,99960.59
2024-03-12T09:03:47.736Z,99966.06
2024-03-12T09:06:14.679Z,99963.19
2024-03-12T09:08:41.310Z,99963.13
2024-03-12T09:11:10.686Z,99966.47
2024-03-12T09:13:37.356Z,99952.00
2024-03-12T09:16:04.334Z,99965.25
2024-03-12T09:18:30.972Z,99969.44
2024-03-12T09:20:57.981Z,99968.66
2024-03-12T09:23:24.857Z,99963.16
2024-03-12T09:25:51.525Z,99967.91
2024-03-12T09:28:18.991Z,99970.09
2024-03-12T09:30:46.857Z,99981.47
2024-03-12T09:33:16.658Z,99980.19
2024-03-12T09:35:43.358Z,99981.41
2024-03-12T09:38:10.965Z,99972.44
2024-03-12T09:40:38.080Z,99963.91
2024-03-12T09:43:05.753Z,99984.72
2024-03-12T09:45:33.106Z,99978.00
2024-03-12T09:48:00.172Z,99969.13
2024-03-12T09:50:30.552Z,99978.19
2024-03-12T09:52:58.597Z,99973.88
2024-03-12T09:55:26.526Z,99966.66
2024-03-12T09:57:54.206Z,99968.63
2024-03-12T10:00:24.016Z,99972.47
2024-03-12T10:02:53.241Z,99972.22
2024-03-12T10:05:24.269Z,99971.94
2024-03-12T10:08:16.341Z,99968.28
2024-03-12T10:10:48.301Z,99961.31
2024-03-12T10:13:16.698Z,99968.97
2024-03-12T10:16:11.540Z,99971.03
2024-03-12T10:18:40.233Z,99968.06
2024-03-12T10:21:08.342Z,99959.81
2024-03-12T10:23:37.873Z,99959.19
2024-03-12T10:26:11.115Z,99959.81
2024-03-12T10:28:41.212Z,99955.19
2024-03-12T10:31:11.029Z,99947.28
2024-03-12T10:33:42.113Z,99960.59
2024-03-12T10:36:12.892Z,99951.06
2024-03-12T10:38:44.171Z,99944.94
2024-03-12T10:41:22.780Z,99945.97
2024-03-12T10:43:56.402Z,99963.75
2024-03-12T10:46:25.124Z,99948.34
2024-03-12T10:48:52.387Z,99961.50
2024-03-12T10:51:20.630Z,99955.56
2024-03-12T10:53:54.564Z,99949.25
2024-03-12T10:56:23.044Z,99949.22
2024-03-12T10:58:50.398Z,99945.28
2024-03-12T11:01:22.066Z,99952.13
2024-03-12T11:03:51.322Z,99938.28
2024-03-12T11:06:20.505Z,99945.25
2024-03-12T11:08:48.729Z,99946.97
2024-03-12T11:11:17.622Z,99941.63
2024-03-12T11:13:44.606Z,99948.88
2024-03-12T11:16:19.125Z,99931.06
2024-03-12T11:18:49.441Z,99928.19
2024-03-12T11:21:24.609Z,99936.19
2024-03-12T11:23:55.538Z,99936.16
2024-03-12T11:29:00.938Z,99927.84
2024-03-12T11:31:40.212Z,99927.13
2024-03-12T11:34:08.692Z,99926.38
2024-03-12T11:36:41.604Z,99924.53
2024-03-12T11:39:13.458Z,99919.84
2024-03-12T11:42:00.940Z,99918.25
2024-03-12T11:44:56.280Z,99920.34
2024-03-12T11:47:30.501Z,99907.78
2024-03-12T11:50:00.118Z,99906.72
2024-03-12T11:52:28.872Z,99901.84
2024-03-12T11:54:55.652Z,99900.66
2024-03-12T11:57:25.528Z,99891.41
2024-03-12T11:59:52.467Z,99897.44
2024-03-12T12:02:22.272Z,99895.28
2024-03-12T12:04:55.368Z,99890.94
2024-03-12T12:07:24.092Z,99903.00
2024-03-12T12:09:53.197Z,99897.22
2024-03-12T12:12:21.291Z,99891.00
2024-03-12T12:14:50.170Z,99891.19
2024-03-12T12:17:25.580Z,99889.75
2024-03-12T12:20:20.014Z,99889.63
2024-03-12T12:22:48.235Z,99889.16
2024-03-12T12:25:22.070Z,99874.09
2024-03-12T12:27:51.982Z,99874.81
2024-03-12T12:30:22.777Z,99879.19
2024-03-12T12:32:53.379Z,99891.28
2024-03-12T12:35:25.157Z,99888.81
2024-03-12T12:37:54.010Z,99889.00
2024-03-12T12:40:23.331Z,99902.88
2024-03-12T12:42:55.248Z,99894.16
2024-03-12T12:45:26.810Z,99884.06
2024-03-12T12:47:56.435Z,99881.75
2024-03-12T12:50:32.312Z,99877.69
2024-03-12T12:53:06.645Z,99876.13
2024-03-12T12:55:34.409Z,99874.13
2024-03-12T12:58:03.899Z,99873.75
2024-03-12T13:00:37.995Z,99868.97
2024-03-12T13:03:13.451Z,99876.69
2024-03-12T13:05:43.818Z,99866.28
2024-03-12T13:08:22.597Z,99870.22
2024-03-12T13:11:06.559Z,99871.97
2024-03-12T13:13:37.344Z,99869.13
2024-03-12T13:16:15.481Z,99869.69
2024-03-12T13:18:45.457Z,99866.44
2024-03-12T13:21:18.683Z,99870.22
2024-03-12T13:23:47.708Z,99864.31
2024-03-12T13:26:17.369Z,99865.81
2024-03-12T13:28:47.799Z,99876.41
2024-03-12T13:31:19.802Z,99864.38
2024-03-12T13:33:48.088Z,99854.69
2024-03-12T13:36:15.384Z,99847.56
2024-03-12T13:38:42.092Z,99856.97
2024-03-12T13:41:10.482Z,99851.25
2024-03-12T13:43:38.695Z,99851.75
2024-03-12T13:46:08.795Z,99849.16
2024-03-12T13:48:41.187Z,99855.13
2024-03-12T13:51:09.249Z,99839.16
2024-03-12T13:53:36.147Z,99843.63
2024-03-12T13:56:04.127Z,99840.91
2024-03-12T13:58:30.802Z,99841.78
2024-03-12T14:00:58.975Z,99837.56
2024-03-12T14:03:31.899Z,99823.03
2024-03-12T14:06:00.557Z,99832.84
2024-03-12T14:08:27.300Z,99821.25
2024-03-12T14:10:54.029Z,99829.34
2024-03-12T14:13:22.924Z,99829.22
2024-03-12T14:15:49.875Z,99825.59
2024-03-12T14:18:22.862Z,99818.09
2024-03-12T14:20:52.706Z,99821.34
2024-03-12T14:23:20.111Z,99826.09
2024-03-12T14:25:46.928Z,99818.44
2024-03-12T14:28:13.874Z,99816.88
2024-03-12T14:30:40.747Z,99836.94
2024-03-12T14:33:07.675Z,99820.41
2024-03-12T14:35:34.381Z,99813.69
2024-03-12T14:38:01.070Z,99816.25
2024-03-12T14:40:27.947Z,99813.72
2024-03-12T14:42:56.100Z,99813.22
2024-03-12T14:45:25.025Z,99798.13
2024-03-12T14:47:52.213Z,99793.81
2024-03-12T14:50:19.196Z,99781.63
2024-03-12T14:52:48.433Z,99767.47
2024-03-12T14:55:15.107Z,99771.25
2024-03-12T14:57:42.156Z,99758.38
2024-03-12T15:00:11.585Z,99756.66
2024-03-12T15:02:38.963Z,99749.06
2024-03-12T15:05:15.914Z,99739.97
2024-03-12T15:07:44.641Z,99727.41
2024-03-12T15:10:12.071Z,99715.41
2024-03-12T15:12:41.004Z,99720.72
2024-03-12T15:15:13.061Z,99727.81
2024-03-12T15:17:40.806Z,99725.09
2024-03-12T15:20:20.193Z,99724.03
2024-03-12T15:22:47.139Z,99716.16
2024-03-12T15:25:16.294Z,99724.81
2024-03-12T15:27:43.561Z,99722.78
2024-03-12T15:30:11.025Z,99717.63
2024-03-12T15:32:39.452Z,99726.00
2024-03-12T15:35:12.767Z,99720.00
2024-03-12T15:37:39.550Z,99721.28
2024-03-12T15:40:08.996Z,99724.31
2024-03-12T15:42:37.548Z,99730.53
2024-03-12T15:45:06.381Z,99749.84
2024-03-12T15:47:35.359Z,99762.63
2024-03-12T15:50:02.548Z,99756.41
2024-03-12T15:52:29.328Z,99765.84
2024-03-12T15:54:56.275Z,99778.69
2024-03-12T15:57:24.275Z,99770.09
2024-03-12T15:59:51.190Z,99769.66
2024-03-12T16:02:19.363Z,99767.31
2024-03-12T16:04:46.322Z,99745.88
2024-03-12T16:07:13.375Z,99749.63
2024-03-12T16:09:40.419Z,99742.09
2024-03-12T16:12:07.371Z,99743.47
2024-03-12T16:14:34.066Z,99735.81
2024-03-12T16:17:00.850Z,99724.22
2024-03-12T16:19:31.078Z,99716.06
2024-03-12T16:22:01.368Z,99706.03
2024-03-12T16:24:31.261Z,99696.09
2024-03-12T16:26:59.150Z,99693.66
2024-03-12T16:29:27.257Z,99691.59
2024-03-12T16:31:53.865Z,99672.34
2024-03-12T16:34:20.703Z,99657.25
2024-03-12T16:36:47.495Z,99643.31
2024-03-12T16:39:14.562Z,99644.34
2024-03-12T16:41:42.153Z,99635.97
2024-03-12T16:44:08.835Z,99633.72
2024-03-12T16:46:35.717Z,99620.59
2024-03-12T16:49:04.920Z,99628.88
2024-03-12T16:51:35.288Z,99626.81
2024-03-12T16:54:03.571Z,99628.81
2024-03-12T16:56:33.705Z,99637.06
2024-03-12T16:59:01.514Z,99638.56
2024-03-12T17:01:29.013Z,99641.34
2024-03-12T17:03:57.365Z,99644.97
2024-03-12T17:06:24.162Z,99643.50
2024-03-12T17:08:51.329Z,99637.84
2024-03-12T17:11:18.276Z,99632.00
2024-03-12T17:13:45.676Z,99635.94
2024-03-12T17:16:14.026Z,99637.75
2024-03-12T17:18:41.919Z,99637.44
2024-03-12T17:21:10.954Z,99634.84
2024-03-12T17:23:37.879Z,99628.53
2024-03-12T17:26:05.505Z,99610.53
2024-03-12T17:28:34.364Z,99610.81
2024-03-12T17:31:01.725Z,99588.56
2024-03-12T17:33:28.771Z,99576.63
2024-03-12T17:35:56.324Z,99562.09
2024-03-12T17:38:26.089Z,99569.19
2024-03-12T17:40:59.355Z,99567.41
2024-03-12T17:43:30.439Z,99552.34
2024-03-12T17:45:57.728Z,99553.84
2024-03-12T17:48:46.100Z,99564.81
2024-03-12T17:51:22.769Z,99559.16
2024-03-12T17:53:49.734Z,99548.97
2024-03-12T17:56:18.254Z,99540.44
2024-03-12T17:58:52.638Z,99523.94
2024-03-12T18:01:22.142Z,99524.97
2024-03-12T18:03:49.664Z,99531.69
2024-03-12T18:06:17.851Z,99546.84
2024-03-12T18:08:51.084Z,99548.84
2024-03-12T18:11:19.990Z,99561.88
2024-03-12T18:13:50.308Z,99567.53
2024-03-12T18:16:17.588Z,99564.63
2024-03-12T18:18:44.574Z,99564.84
2024-03-12T18:21:14.266Z,99557.88
2024-03-12T18:23:42.373Z,99559.19
2024-03-12T18:26:09.179Z,99563.69
2024-03-12T18:28:36.900Z,99563.91
2024-03-12T18:31:03.745Z,99559.59
2024-03-12T18:33:30.944Z,99564.72
2024-03-12T18:35:57.729Z,99557.56
2024-03-12T18:38:25.908Z,99559.38
2024-03-12T18:40:52.583Z,99565.31
2024-03-12T18:43:19.321Z,99565.28
2024-03-12T18:45:46.020Z,99563.84
2024-03-12T18:48:13.411Z,99564.28
2024-03-12T18:50:40.321Z,99560.25
2024-03-12T18:53:07.519Z,99558.19
2024-03-12T18:55:34.408Z,99552.78
2024-03-12T18:58:01.324Z,99546.03
2024-03-12T19:00:30.076Z,99537.72
2024-03-12T19:03:05.256Z,99525.88
2024-03-12T19:05:35.324Z,99523.09
2024-03-12T19:08:03.608Z,99519.47
2024-03-12T19:10:31.206Z,99512.47
2024-03-12T19:12:59.001Z,99494.22
2024-03-12T19:15:36.299Z,99489.13
2024-03-12T19:18:12.747Z,99486.69
2024-03-12T19:20:39.785Z,99482.75
2024-03-12T19:23:07.011Z,99478.44
2024-03-12T19:25:33.613Z,99466.97
2024-03-12T19:28:00.412Z,99468.44
2024-03-12T19:30:27.332Z,99483.19
2024-03-12T19:32:54.543Z,99475.94
2024-03-12T19:35:22.564Z,99479.38
2024-03-12T19:37:50.092Z,99472.06
2024-03-12T19:40:24.855Z,99467.41
2024-03-12T19:42:53.721Z,99455.94
2024-03-12T19:45:24.310Z,99454.22
2024-03-12T19:47:52.837Z,99442.97
2024-03-12T19:50:25.637Z,99456.84
2024-03-12T19:52:54.097Z,99443.34
2024-03-12T19:55:30.664Z,99441.69
2024-03-12T19:58:00.898Z,99436.34
2024-03-12T20:00:35.860Z,99443.81
2024-03-12T20:03:13.632Z,99436.53
2024-03-12T20:05:41.892Z,99427.78
2024-03-12T20:08:10.605Z,99435.66
2024-03-12T20:10:38.234Z,99427.50
2024-03-12T20:13:06.486Z,99430.94
2024-03-12T20:15:34.050Z,99434.94
2024-03-12T20:18:02.285Z,99427.53
2024-03-12T20:20:29.794Z,99422.63
2024-03-12T20:22:56.901Z,99416.81
2024-03-12T20:25:24.100Z,99411.59
2024-03-12T20:27:55.459Z,99412.22
2024-03-12T20:30:28.349Z,99404.94
2024-03-12T20:32:58.078Z,99400.34
2024-03-12T20:35:25.492Z,99398.44
2024-03-12T20:37:56.542Z,99400.88
2024-03-12T20:40:26.338Z,99393.13
2024-03-12T20:42:54.033Z,99388.44
2024-03-12T20:45:23.954Z,99389.34
2024-03-12T20:47:51.073Z,99389.81
2024-03-12T20:50:20.408Z,99390.44
2024-03-12T20:52:48.173Z,99391.91
2024-03-12T20:55:15.455Z,99386.78
2024-03-12T20:57:45.316Z,99388.03
2024-03-12T21:00:24.646Z,99397.16
2024-03-12T21:02:53.174Z,99394.34
2024-03-12T21:05:21.839Z,99399.28
2024-03-12T21:07:49.199Z,99407.84
2024-03-12T21:10:15.860Z,99406.84
2024-03-12T21:12:49.743Z,99401.00
2024-03-12T21:15:17.637Z,99395.03
2024-03-12T21:17:45.232Z,99384.22
2024-03-12T21:20:17.344Z,99388.38
2024-03-12T21:22:44.031Z,99393.88
2024-03-12T21:25:11.622Z,99391.44
2024-03-12T21:27:38.615Z,99378.25
2024-03-12T21:30:10.319Z,99381.31
2024-03-12T21:32:37.055Z,99376.72
2024-03-12T21:35:06.318Z,99359.38
2024-03-12T21:37:33.244Z,99350.41
2024-03-12T21:40:00.817Z,99324.03
2024-03-12T21:42:27.558Z,99347.03
2024-03-12T21:44:54.201Z,99344.47
2024-03-12T21:47:21.712Z,99345.06
2024-03-12T21:49:48.439Z,99331.63
2024-03-12T21:52:17.114Z,99326.09
2024-03-12T21:54:47.718Z,99339.22
2024-03-12T21:57:14.518Z,99333.38
2024-03-12T21:59:41.350Z,99336.56
2024-03-12T22:02:08.316Z,99337.69
2024-03-12T22:04:34.998Z,99337.38
2024-03-12T22:07:03.449Z,99329.09
2024-03-12T22:09:30.490Z,99318.91
2024-03-12T22:11:57.155Z,99315.81
2024-03-12T22:14:25.312Z,99311.97
2024-03-12T22:16:52.422Z,99322.13
2024-03-12T22:19:19.613Z,99309.22
2024-03-12T22:21:49.116Z,99293.28
2024-03-12T22:24:23.755Z,99296.66
2024-03-12T22:26:54.542Z,99283.81
2024-03-12T22:29:21.428Z,99284.84
2024-03-12T22:31:49.716Z,99281.41
2024-03-12T22:34:16.903Z,99287.59
2024-03-12T22:36:45.312Z,99270.19
2024-03-12T22:39:14.328Z,99264.22
2024-03-12T22:41:49.022Z,99265.91
2024-03-12T22:44:16.510Z,99269.13
2024-03-12T22:46:45.570Z,99252.78
2024-03-12T22:49:12.649Z,99247.47
2024-03-12T22:51:41.433Z,99244.63
2024-03-12T22:54:11.414Z,99239.41
2024-03-12T22:56:39.098Z,99229.31
2024-03-12T22:59:07.693Z,99237.88
2024-03-12T23:01:41.210Z,99236.44
2024-03-12T23:04:09.633Z,99220.78
2024-03-12T23:06:39.876Z,99227.28
2024-03-12T23:09:09.170Z,99219.28
2024-03-12T23:11:36.312Z,99216.53
2024-03-12T23:14:05.776Z,99207.13
2024-03-12T23:16:32.587Z,99206.16
2024-03-12T23:18:59.192Z,99198.19
2024-03-12T23:21:27.532Z,99204.66
2024-03-12T23:23:54.403Z,99189.00
2024-03-12T23:26:21.056Z,99191.03
2024-03-12T23:28:47.730Z,99190.88
2024-03-12T23:31:14.463Z,99187.06
2024-03-12T23:33:41.193Z,99181.50
2024-03-12T23:36:08.608Z,99176.81
2024-03-12T23:38:36.639Z,99170.00
2024-03-12T23:41:03.482Z,99170.81
2024-03-12T23:43:31.074Z,99151.38
2024-03-12T23:45:57.794Z,99154.56
2024-03-12T23:48:25.552Z,99150.63
2024-03-12T23:50:52.489Z,99146.22
2024-03-12T23:53:19.114Z,99144.19
2024-03-12T23:55:45.927Z,99135.69
2024-03-12T23:58:13.212Z,99134.53
